Terminal Aerodrome Forecast
Issued by NWS

Home | Current Version | Previous Version | Text Only | Print | Product List | Glossary On
Versions: 1 2 3 4 5 6 7 8 9 10 11 12 13 14 15 16 17 18 19 20 21 22 23 24
000
FTUS42 KTAE 130800 AAD
TAFECP
TAF AMD
KECP 130849Z 1309/1406 00000KT 6SM BR SCT002
     FM131300 18007KT P6SM SCT035
      TEMPO 1318/1322 3SM TSRA SCT025CB BKN035=

USA.gov is the U.S. government's official web portal to all federal, state and local government web resources and services.